createdAt,value
2023-05-03T00:01:20.958Z,2.33
2023-05-03T00:03:53.834Z,2.80
2023-05-03T00:06:21.680Z,2.47
2023-05-03T00:08:48.978Z,2.35
2023-05-03T00:11:16.033Z,2.20
2023-05-03T00:13:43.605Z,2.50
2023-05-03T00:16:10.351Z,2.47
2023-05-03T00:18:37.307Z,2.20
2023-05-03T00:21:04.432Z,2.05
2023-05-03T00:23:31.397Z,2.22
2023-05-03T00:25:59.346Z,2.03
2023-05-03T00:28:26.292Z,2.53
2023-05-03T00:30:53.780Z,2.72
2023-05-03T00:33:20.899Z,3.60
2023-05-03T00:35:47.814Z,2.67
2023-05-03T00:38:15.486Z,2.30
2023-05-03T00:40:43.246Z,2.35
2023-05-03T00:43:35.676Z,2.13
2023-05-03T00:46:15.987Z,2.40
2023-05-03T00:49:09.151Z,2.33
2023-05-03T00:51:36.068Z,2.60
2023-05-03T00:54:03.149Z,3.03
2023-05-03T00:56:32.975Z,2.33
2023-05-03T00:59:06.331Z,2.35
2023-05-03T01:01:33.138Z,2.33
2023-05-03T01:04:05.449Z,2.40
2023-05-03T01:06:48.503Z,1.83
2023-05-03T01:09:37.720Z,2.05
2023-05-03T01:12:46.499Z,2.33
2023-05-03T01:15:25.925Z,2.22
2023-05-03T01:17:59.847Z,2.17
2023-05-03T01:20:31.093Z,1.98
2023-05-03T01:22:58.154Z,2.22
2023-05-03T01:25:25.319Z,2.28
2023-05-03T01:27:52.271Z,2.25
2023-05-03T01:30:25.705Z,2.25
2023-05-03T01:33:01.506Z,2.15
2023-05-03T01:35:37.273Z,1.65
2023-05-03T01:38:05.131Z,1.52
2023-05-03T01:40:36.814Z,2.28
2023-05-03T01:43:04.606Z,1.92
2023-05-03T01:45:31.539Z,2.10
2023-05-03T01:47:58.491Z,2.17
2023-05-03T01:50:25.205Z,2.53
2023-05-03T01:52:55.364Z,2.97
2023-05-03T01:55:22.129Z,2.08
2023-05-03T01:57:48.922Z,2.25
2023-05-03T02:00:16.374Z,2.00
2023-05-03T02:02:44.202Z,2.03
2023-05-03T02:05:12.479Z,1.90
2023-05-03T02:07:39.298Z,2.22
2023-05-03T02:10:07.107Z,2.40
2023-05-03T02:12:33.901Z,1.60
2023-05-03T02:15:00.719Z,2.35
2023-05-03T02:17:27.800Z,2.08
2023-05-03T02:19:55.206Z,2.17
2023-05-03T02:22:21.958Z,2.10
2023-05-03T02:24:49.036Z,2.65
2023-05-03T02:27:17.522Z,2.33
2023-05-03T02:29:44.414Z,2.95
2023-05-03T02:32:11.728Z,2.58
2023-05-03T02:34:39.488Z,2.33
2023-05-03T02:37:07.802Z,1.98
2023-05-03T02:39:34.567Z,1.90
2023-05-03T02:42:02.576Z,2.67
2023-05-03T02:44:30.408Z,2.38
2023-05-03T02:46:58.739Z,2.80
2023-05-03T02:49:26.258Z,2.80
2023-05-03T02:51:56.772Z,2.65
2023-05-03T02:54:24.389Z,2.13
2023-05-03T02:56:51.754Z,2.28
2023-05-03T02:59:18.828Z,2.60
2023-05-03T03:01:47.120Z,3.03
2023-05-03T03:04:16.193Z,2.95
2023-05-03T03:06:43.138Z,2.00
2023-05-03T03:09:10.040Z,2.25
2023-05-03T03:11:36.757Z,2.38
2023-05-03T03:14:03.416Z,2.17
2023-05-03T03:16:30.624Z,2.95
2023-05-03T03:18:57.537Z,2.75
2023-05-03T03:21:24.369Z,2.90
2023-05-03T03:23:51.429Z,2.00
2023-05-03T03:26:18.943Z,3.00
2023-05-03T03:28:46.189Z,2.38
2023-05-03T03:31:13.904Z,1.92
2023-05-03T03:33:42.584Z,2.28
2023-05-03T03:36:14.728Z,2.55
2023-05-03T03:38:44.955Z,2.20
2023-05-03T03:41:11.810Z,2.60
2023-05-03T03:43:38.976Z,2.38
2023-05-03T03:46:10.452Z,2.60
2023-05-03T03:48:37.419Z,2.47
2023-05-03T03:51:04.678Z,2.15
2023-05-03T03:53:37.632Z,2.10
2023-05-03T03:57:17.988Z,2.50
2023-05-03T03:59:45.475Z,2.60
2023-05-03T04:02:12.356Z,2.50
2023-05-03T04:04:39.363Z,2.08
2023-05-03T04:07:06.489Z,2.88
2023-05-03T04:09:33.772Z,2.50
2023-05-03T04:12:01.992Z,2.90
2023-05-03T04:14:28.766Z,2.95
2023-05-03T04:16:56.043Z,2.83
2023-05-03T04:19:23.877Z,2.78
2023-05-03T04:21:50.915Z,3.22
2023-05-03T04:24:19.883Z,2.40
2023-05-03T04:26:46.752Z,2.40
2023-05-03T04:29:20.381Z,2.63
2023-05-03T04:31:47.872Z,2.30
2023-05-03T04:34:16.259Z,2.67
2023-05-03T04:36:47.343Z,3.60
2023-05-03T04:39:17.331Z,2.90
2023-05-03T04:41:46.907Z,3.10
2023-05-03T04:44:14.399Z,2.22
2023-05-03T04:46:43.512Z,2.85
2023-05-03T04:49:10.489Z,2.58
2023-05-03T04:51:37.129Z,2.47
2023-05-03T04:54:03.967Z,2.92
2023-05-03T04:56:31.520Z,2.83
2023-05-03T04:59:08.844Z,2.90
2023-05-03T05:01:36.224Z,3.75
2023-05-03T05:04:04.958Z,2.63
2023-05-03T05:06:38.523Z,2.63
2023-05-03T05:09:07.749Z,2.38
2023-05-03T05:11:34.918Z,2.47
2023-05-03T05:14:02.224Z,5.47
2023-05-03T05:16:29.484Z,3.08
2023-05-03T05:18:56.841Z,3.10
2023-05-03T05:21:27.292Z,2.80
2023-05-03T05:23:55.841Z,2.03
2023-05-03T05:26:23.794Z,3.13
2023-05-03T05:28:53.410Z,2.72
2023-05-03T05:31:21.190Z,2.35
2023-05-03T05:33:50.675Z,2.88
2023-05-03T05:36:21.230Z,3.05
2023-05-03T05:38:50.696Z,3.25
2023-05-03T05:41:18.666Z,2.83
2023-05-03T05:43:46.889Z,3.08
2023-05-03T05:46:15.057Z,2.25
2023-05-03T05:48:43.164Z,3.30
2023-05-03T05:51:12.477Z,2.00
2023-05-03T05:53:40.827Z,2.58
2023-05-03T05:56:09.441Z,2.80
2023-05-03T05:58:39.848Z,2.60
2023-05-03T06:02:03.530Z,2.95
2023-05-03T06:04:31.109Z,3.08
2023-05-03T06:07:00.333Z,2.45
2023-05-03T06:09:28.401Z,2.78
2023-05-03T06:12:01.526Z,2.95
2023-05-03T06:14:31.959Z,2.80
2023-05-03T06:17:01.384Z,2.45
2023-05-03T06:19:31.419Z,2.95
2023-05-03T06:22:00.026Z,2.80
2023-05-03T06:24:31.405Z,2.65
2023-05-03T06:27:00.337Z,3.35
2023-05-03T06:29:29.839Z,2.47
2023-05-03T06:31:58.262Z,3.08
2023-05-03T06:34:27.152Z,3.55
2023-05-03T06:36:56.419Z,2.83
2023-05-03T06:39:33.183Z,3.22
2023-05-03T06:42:02.807Z,2.90
2023-05-03T06:44:38.703Z,3.25
2023-05-03T06:51:06.891Z,2.97
2023-05-03T06:53:35.565Z,2.97
2023-05-03T06:56:04.378Z,2.95
2023-05-03T06:58:37.595Z,2.80
2023-05-03T07:01:06.061Z,2.60
2023-05-03T07:03:34.009Z,2.28
2023-05-03T07:06:01.740Z,2.38
2023-05-03T07:08:29.737Z,2.45
2023-05-03T07:10:57.758Z,2.30
2023-05-03T07:13:25.280Z,2.30
2023-05-03T07:15:54.149Z,2.92
2023-05-03T07:18:22.375Z,2.83
2023-05-03T07:20:50.100Z,2.40
2023-05-03T07:23:20.043Z,2.72
2023-05-03T07:25:52.172Z,2.20
2023-05-03T07:28:20.224Z,2.38
2023-05-03T15:29:24.790Z,0.95
2023-05-03T15:31:51.686Z,0.90
2023-05-03T15:34:18.460Z,0.75
2023-05-03T15:36:45.112Z,0.88
2023-05-03T15:39:13.065Z,0.82
2023-05-03T15:41:39.970Z,1.25
2023-05-03T15:44:08.303Z,0.80
2023-05-03T15:46:35.223Z,1.00
2023-05-03T15:49:02.281Z,0.98
2023-05-03T15:51:29.731Z,1.10
2023-05-03T15:53:56.575Z,1.05
2023-05-03T15:56:26.773Z,0.70
2023-05-03T15:58:54.191Z,0.80
2023-05-03T16:01:21.067Z,0.80
2023-05-03T16:03:48.111Z,1.05
2023-05-03T16:06:20.715Z,0.80
2023-05-03T16:08:47.672Z,1.08
2023-05-03T16:11:15.129Z,1.33
2023-05-03T16:13:41.953Z,1.00
2023-05-03T16:16:08.989Z,0.70
2023-05-03T16:18:35.860Z,0.73
2023-05-03T16:21:05.218Z,1.20
2023-05-03T16:23:32.124Z,0.60
2023-05-03T16:25:58.929Z,0.80
2023-05-03T16:28:26.320Z,0.40
2023-05-03T16:30:56.053Z,1.05
2023-05-03T16:33:23.071Z,0.80
2023-05-03T16:35:50.196Z,0.80
2023-05-03T16:38:17.036Z,1.15
2023-05-03T16:40:44.019Z,1.08
2023-05-03T16:43:11.028Z,0.70
2023-05-03T16:45:38.003Z,0.95
2023-05-03T16:48:07.378Z,0.68
2023-05-03T16:50:37.303Z,0.80
2023-05-03T16:53:04.268Z,0.77
2023-05-03T16:55:31.076Z,0.90
2023-05-03T16:57:58.223Z,0.70
2023-05-03T17:00:25.156Z,0.60
2023-05-03T17:02:52.164Z,0.73
2023-05-03T17:09:16.132Z,1.10
2023-05-03T17:11:47.425Z,0.80
2023-05-03T17:14:14.304Z,0.80
2023-05-03T17:16:42.356Z,1.08
2023-05-03T17:19:09.617Z,1.05
2023-05-03T17:21:36.565Z,0.80
2023-05-03T17:24:03.568Z,0.70
2023-05-03T17:26:31.825Z,0.70
2023-05-03T17:29:01.158Z,0.90
2023-05-03T17:31:28.082Z,1.15
2023-05-03T17:33:55.129Z,0.80
2023-05-03T17:36:22.596Z,1.00
2023-05-03T17:38:49.923Z,0.60
2023-05-03T17:41:18.317Z,1.00
2023-05-03T17:43:45.340Z,0.55
2023-05-03T17:46:14.874Z,0.70
2023-05-03T17:48:47.829Z,0.68
2023-05-03T17:51:15.269Z,0.88
2023-05-03T17:53:43.242Z,0.80
2023-05-03T17:56:18.077Z,1.00
2023-05-03T17:58:46.905Z,0.95
2023-05-03T18:01:15.800Z,0.65
2023-05-03T18:03:43.105Z,0.80
2023-05-03T18:06:12.460Z,0.80
2023-05-03T18:08:39.598Z,0.60
2023-05-03T18:11:06.465Z,1.15
2023-05-03T18:13:33.555Z,0.90
2023-05-03T18:16:01.110Z,0.82
2023-05-03T18:18:28.063Z,0.68
2023-05-03T18:21:02.425Z,1.08
2023-05-03T18:23:30.520Z,0.60
2023-05-03T18:25:57.398Z,0.80
2023-05-03T18:28:24.224Z,0.90
2023-05-03T18:31:01.263Z,1.20
2023-05-03T18:33:28.128Z,0.80
2023-05-03T18:35:57.832Z,1.17
2023-05-03T18:38:24.887Z,0.70
2023-05-03T18:40:51.981Z,1.30
2023-05-03T18:43:19.516Z,1.27
2023-05-03T18:46:18.900Z,0.95
2023-05-03T18:49:04.152Z,1.27
2023-05-03T18:51:32.684Z,0.90
2023-05-03T18:54:01.027Z,0.77
2023-05-03T18:56:30.332Z,0.70
2023-05-03T18:58:57.202Z,0.95
2023-05-03T19:01:26.867Z,1.23
2023-05-03T19:03:56.452Z,0.75
2023-05-03T19:06:29.692Z,0.70
2023-05-03T19:08:56.629Z,0.60
2023-05-03T19:11:27.027Z,1.25
2023-05-03T19:13:54.026Z,0.75
2023-05-03T19:16:21.049Z,0.55
2023-05-03T19:18:48.267Z,0.55
2023-05-03T19:21:17.599Z,1.20
2023-05-03T19:23:45.054Z,1.00
2023-05-03T19:26:11.968Z,0.80
2023-05-03T19:28:38.904Z,0.90
2023-05-03T19:31:06.265Z,0.70
2023-05-03T19:33:33.979Z,1.02
2023-05-03T19:36:06.645Z,1.00
2023-05-03T19:38:36.861Z,0.80
2023-05-03T19:41:12.489Z,1.00
2023-05-03T19:43:40.689Z,0.80
2023-05-03T19:46:07.834Z,0.90
2023-05-03T19:48:35.095Z,1.85
2023-05-03T19:51:02.665Z,1.60
2023-05-03T19:53:29.532Z,1.30
2023-05-03T19:55:58.159Z,0.65
2023-05-03T19:58:25.763Z,0.77
2023-05-03T20:00:53.223Z,0.88
2023-05-03T20:03:22.723Z,0.80
2023-05-03T20:05:49.993Z,0.93
2023-05-03T20:08:16.880Z,1.77
2023-05-03T20:10:46.204Z,0.90
2023-05-03T20:13:13.540Z,1.17
2023-05-03T20:15:42.367Z,0.88
2023-05-03T20:18:09.459Z,1.60
2023-05-03T20:20:36.647Z,1.00
2023-05-03T20:23:03.389Z,1.42
2023-05-03T20:25:30.229Z,1.27
2023-05-03T20:28:11.680Z,1.38
2023-05-03T20:30:38.804Z,1.60
2023-05-03T20:33:05.687Z,1.17
2023-05-03T20:35:32.502Z,1.00
2023-05-03T20:37:59.274Z,1.30
2023-05-03T20:40:26.082Z,1.23
2023-05-03T20:42:52.846Z,1.00
2023-05-03T20:45:19.704Z,0.98
2023-05-03T20:47:46.528Z,1.13
2023-05-03T20:50:13.459Z,1.50
2023-05-03T20:52:40.296Z,0.88
2023-05-03T20:55:07.434Z,1.10
2023-05-03T20:57:34.365Z,0.93
2023-05-03T21:03:58.799Z,1.35
2023-05-03T21:06:25.564Z,1.10
2023-05-03T21:08:52.896Z,1.15
2023-05-03T21:11:19.778Z,1.08
2023-05-03T21:13:46.454Z,0.82
2023-05-03T21:16:15.485Z,1.17
2023-05-03T21:18:42.457Z,1.38
2023-05-03T21:21:09.215Z,0.90
2023-05-03T21:23:35.931Z,1.00
2023-05-03T21:26:02.835Z,1.30
2023-05-03T21:28:31.746Z,1.20
2023-05-03T21:30:58.844Z,1.45
2023-05-03T21:33:25.584Z,1.42
2023-05-03T21:35:52.325Z,1.10
2023-05-03T21:38:19.217Z,1.08
2023-05-03T21:40:47.407Z,0.80
2023-05-03T21:43:16.600Z,1.40
2023-05-03T21:45:44.264Z,1.48
2023-05-03T21:48:11.018Z,1.40
2023-05-03T21:50:41.064Z,1.45
2023-05-03T21:53:08.021Z,1.05
2023-05-03T21:55:34.833Z,1.55
2023-05-03T21:58:01.621Z,1.02
2023-05-03T22:00:29.044Z,1.30
2023-05-03T22:02:56.009Z,1.48
2023-05-03T22:05:25.394Z,1.40
2023-05-03T22:07:52.201Z,1.10
2023-05-03T22:10:19.124Z,1.25
2023-05-03T22:12:46.261Z,1.27
2023-05-03T22:15:16.322Z,1.35
2023-05-03T22:17:43.401Z,2.00
2023-05-03T22:20:10.827Z,1.50
2023-05-03T22:22:37.848Z,1.17
2023-05-03T22:25:05.158Z,1.75
2023-05-03T22:27:31.837Z,1.55
2023-05-03T22:29:58.620Z,2.35
2023-05-03T22:32:25.526Z,1.50
2023-05-03T22:34:52.401Z,1.42
2023-05-03T22:37:19.481Z,2.85
2023-05-03T22:39:46.304Z,1.38
2023-05-03T22:42:13.283Z,1.45
2023-05-03T22:44:40.183Z,1.30
2023-05-03T22:47:07.006Z,1.98
2023-05-03T22:49:33.773Z,1.50
2023-05-03T22:52:00.588Z,1.23
2023-05-03T22:54:27.432Z,1.38
2023-05-03T22:56:54.813Z,1.40
2023-05-03T22:59:21.721Z,1.55
2023-05-03T23:01:49.663Z,1.73
2023-05-03T23:04:16.842Z,1.40
2023-05-03T23:06:44.700Z,1.40
2023-05-03T23:09:11.837Z,1.38
2023-05-03T23:11:38.677Z,1.50
2023-05-03T23:14:06.245Z,1.42
2023-05-03T23:16:33.118Z,1.52
2023-05-03T23:19:26.778Z,1.20
2023-05-03T23:21:53.745Z,1.55
2023-05-03T23:24:20.572Z,1.33
2023-05-03T23:26:47.441Z,1.40
2023-05-03T23:29:14.526Z,1.27
2023-05-03T23:31:41.889Z,1.58
2023-05-03T23:34:09.125Z,1.73
2023-05-03T23:36:35.933Z,1.70
2023-05-03T23:39:05.897Z,1.85
2023-05-03T23:41:34.076Z,1.75
2023-05-03T23:44:01.094Z,1.50
2023-05-03T23:46:28.062Z,1.65
2023-05-03T23:50:08.617Z,1.98
2023-05-03T23:52:35.477Z,2.08
2023-05-03T23:55:02.480Z,1.92
2023-05-03T23:57:29.343Z,2.22
2023-05-03T23:59:56.277Z,1.40
